sensor_id;sensor_type;location;lat;lon;timestamp;P1;durP1;ratioP1;P2;durP2;ratioP2
29320;SDS011;16323;51.130;6.612;2023-02-26T00:02:11;3.22;;;0.60;;
29320;SDS011;16323;51.130;6.612;2023-02-26T00:04:38;2.58;;;0.90;;
29320;SDS011;16323;51.130;6.612;2023-02-26T00:07:05;2.47;;;0.80;;
29320;SDS011;16323;51.130;6.612;2023-02-26T00:09:32;2.63;;;0.90;;
29320;SDS011;16323;51.130;6.612;2023-02-26T00:11:59;2.63;;;0.90;;
29320;SDS011;16323;51.130;6.612;2023-02-26T00:14:26;2.90;;;0.60;;
29320;SDS011;16323;51.130;6.612;2023-02-26T00:16:57;1.65;;;0.63;;
29320;SDS011;16323;51.130;6.612;2023-02-26T00:19:36;1.98;;;0.70;;
29320;SDS011;16323;51.130;6.612;2023-02-26T00:22:04;2.20;;;0.50;;
29320;SDS011;16323;51.130;6.612;2023-02-26T00:24:31;2.63;;;0.80;;
29320;SDS011;16323;51.130;6.612;2023-02-26T00:26:58;1.70;;;0.50;;
29320;SDS011;16323;51.130;6.612;2023-02-26T00:29:25;1.23;;;0.70;;
29320;SDS011;16323;51.130;6.612;2023-02-26T00:31:52;2.63;;;0.70;;
29320;SDS011;16323;51.130;6.612;2023-02-26T00:34:19;1.70;;;0.73;;
29320;SDS011;16323;51.130;6.612;2023-02-26T00:36:49;1.80;;;0.85;;
29320;SDS011;16323;51.130;6.612;2023-02-26T00:39:30;2.70;;;0.80;;
29320;SDS011;16323;51.130;6.612;2023-02-26T00:42:06;2.10;;;0.80;;
29320;SDS011;16323;51.130;6.612;2023-02-26T00:44:33;1.08;;;0.60;;
29320;SDS011;16323;51.130;6.612;2023-02-26T00:47:03;2.53;;;0.88;;
29320;SDS011;16323;51.130;6.612;2023-02-26T00:49:42;1.60;;;0.70;;
29320;SDS011;16323;51.130;6.612;2023-02-26T00:52:22;3.67;;;0.85;;
29320;SDS011;16323;51.130;6.612;2023-02-26T00:54:54;2.15;;;1.05;;
29320;SDS011;16323;51.130;6.612;2023-02-26T00:57:21;1.65;;;0.80;;
29320;SDS011;16323;51.130;6.612;2023-02-26T00:59:48;1.50;;;0.77;;
29320;SDS011;16323;51.130;6.612;2023-02-26T01:02:14;2.80;;;0.60;;
29320;SDS011;16323;51.130;6.612;2023-02-26T01:04:42;2.60;;;0.98;;
29320;SDS011;16323;51.130;6.612;2023-02-26T01:07:09;2.75;;;1.05;;
29320;SDS011;16323;51.130;6.612;2023-02-26T01:09:38;1.83;;;1.00;;
29320;SDS011;16323;51.130;6.612;2023-02-26T01:12:06;2.28;;;0.80;;
29320;SDS011;16323;51.130;6.612;2023-02-26T01:14:35;2.85;;;0.82;;
29320;SDS011;16323;51.130;6.612;2023-02-26T01:17:03;2.15;;;0.73;;
29320;SDS011;16323;51.130;6.612;2023-02-26T01:19:37;2.08;;;0.80;;
29320;SDS011;16323;51.130;6.612;2023-02-26T01:22:11;2.63;;;0.90;;
29320;SDS011;16323;51.130;6.612;2023-02-26T01:24:44;2.22;;;0.70;;
29320;SDS011;16323;51.130;6.612;2023-02-26T01:27:12;1.80;;;0.90;;
29320;SDS011;16323;51.130;6.612;2023-02-26T01:29:40;3.45;;;0.95;;
29320;SDS011;16323;51.130;6.612;2023-02-26T01:32:07;2.05;;;0.98;;
29320;SDS011;16323;51.130;6.612;2023-02-26T01:34:43;2.63;;;0.90;;
29320;SDS011;16323;51.130;6.612;2023-02-26T01:37:19;2.53;;;0.98;;
29320;SDS011;16323;51.130;6.612;2023-02-26T01:39:54;2.85;;;1.10;;
29320;SDS011;16323;51.130;6.612;2023-02-26T01:42:34;2.45;;;1.13;;
29320;SDS011;16323;51.130;6.612;2023-02-26T01:45:09;3.22;;;1.10;;
29320;SDS011;16323;51.130;6.612;2023-02-26T01:47:47;1.85;;;0.93;;
29320;SDS011;16323;51.130;6.612;2023-02-26T01:50:19;3.38;;;1.05;;
29320;SDS011;16323;51.130;6.612;2023-02-26T01:55:47;2.90;;;1.02;;
29320;SDS011;16323;51.130;6.612;2023-02-26T01:58:16;2.10;;;0.90;;
29320;SDS011;16323;51.130;6.612;2023-02-26T02:00:45;1.98;;;1.00;;
29320;SDS011;16323;51.130;6.612;2023-02-26T02:03:12;1.48;;;0.80;;
29320;SDS011;16323;51.130;6.612;2023-02-26T02:05:40;3.42;;;1.05;;
29320;SDS011;16323;51.130;6.612;2023-02-26T02:08:10;2.83;;;1.10;;
29320;SDS011;16323;51.130;6.612;2023-02-26T02:10:39;3.20;;;1.10;;
29320;SDS011;16323;51.130;6.612;2023-02-26T02:13:11;2.30;;;0.95;;
29320;SDS011;16323;51.130;6.612;2023-02-26T02:15:45;5.20;;;1.20;;
29320;SDS011;16323;51.130;6.612;2023-02-26T02:18:19;3.55;;;1.17;;
29320;SDS011;16323;51.130;6.612;2023-02-26T02:20:56;2.58;;;1.15;;
29320;SDS011;16323;51.130;6.612;2023-02-26T02:23:43;3.05;;;0.80;;
29320;SDS011;16323;51.130;6.612;2023-02-26T02:26:17;2.58;;;1.10;;
29320;SDS011;16323;51.130;6.612;2023-02-26T02:29:04;1.52;;;0.85;;
29320;SDS011;16323;51.130;6.612;2023-02-26T02:31:46;5.65;;;1.17;;
29320;SDS011;16323;51.130;6.612;2023-02-26T02:34:18;2.70;;;1.00;;
29320;SDS011;16323;51.130;6.612;2023-02-26T02:36:50;2.17;;;0.90;;
29320;SDS011;16323;51.130;6.612;2023-02-26T02:39:22;1.60;;;0.70;;
29320;SDS011;16323;51.130;6.612;2023-02-26T02:41:54;2.90;;;1.08;;
29320;SDS011;16323;51.130;6.612;2023-02-26T02:44:24;2.97;;;0.90;;
29320;SDS011;16323;51.130;6.612;2023-02-26T02:46:55;2.10;;;0.80;;
29320;SDS011;16323;51.130;6.612;2023-02-26T02:49:26;1.42;;;0.90;;
29320;SDS011;16323;51.130;6.612;2023-02-26T02:51:58;1.27;;;0.55;;
29320;SDS011;16323;51.130;6.612;2023-02-26T02:54:29;3.30;;;0.80;;
29320;SDS011;16323;51.130;6.612;2023-02-26T02:57:00;1.58;;;0.68;;
29320;SDS011;16323;51.130;6.612;2023-02-26T02:59:31;1.95;;;0.93;;
29320;SDS011;16323;51.130;6.612;2023-02-26T03:02:03;2.08;;;0.80;;
29320;SDS011;16323;51.130;6.612;2023-02-26T03:04:35;1.60;;;0.80;;
29320;SDS011;16323;51.130;6.612;2023-02-26T03:07:03;2.85;;;1.10;;
29320;SDS011;16323;51.130;6.612;2023-02-26T03:09:29;3.28;;;1.08;;
29320;SDS011;16323;51.130;6.612;2023-02-26T03:11:56;4.88;;;1.17;;
29320;SDS011;16323;51.130;6.612;2023-02-26T03:14:23;1.60;;;0.98;;
29320;SDS011;16323;51.130;6.612;2023-02-26T03:16:55;1.48;;;0.75;;
29320;SDS011;16323;51.130;6.612;2023-02-26T03:19:34;2.92;;;1.20;;
29320;SDS011;16323;51.130;6.612;2023-02-26T03:22:07;1.70;;;0.80;;
29320;SDS011;16323;51.130;6.612;2023-02-26T03:24:39;1.92;;;0.80;;
29320;SDS011;16323;51.130;6.612;2023-02-26T03:27:14;2.25;;;0.73;;
29320;SDS011;16323;51.130;6.612;2023-02-26T03:29:48;1.23;;;0.63;;
29320;SDS011;16323;51.130;6.612;2023-02-26T03:32:20;1.85;;;0.73;;
29320;SDS011;16323;51.130;6.612;2023-02-26T03:34:52;2.50;;;0.80;;
29320;SDS011;16323;51.130;6.612;2023-02-26T03:37:24;1.60;;;0.70;;
29320;SDS011;16323;51.130;6.612;2023-02-26T03:39:56;1.83;;;0.90;;
29320;SDS011;16323;51.130;6.612;2023-02-26T03:42:30;1.77;;;0.68;;
29320;SDS011;16323;51.130;6.612;2023-02-26T03:45:01;1.02;;;0.60;;
29320;SDS011;16323;51.130;6.612;2023-02-26T03:47:32;3.05;;;0.40;;
29320;SDS011;16323;51.130;6.612;2023-02-26T03:50:02;1.67;;;0.65;;
29320;SDS011;16323;51.130;6.612;2023-02-26T03:52:33;2.13;;;0.70;;
29320;SDS011;16323;51.130;6.612;2023-02-26T03:55:05;1.20;;;0.60;;
29320;SDS011;16323;51.130;6.612;2023-02-26T03:57:35;1.83;;;0.63;;
29320;SDS011;16323;51.130;6.612;2023-02-26T04:00:03;1.70;;;0.70;;
29320;SDS011;16323;51.130;6.612;2023-02-26T04:02:32;2.85;;;0.98;;
29320;SDS011;16323;51.130;6.612;2023-02-26T04:05:06;3.22;;;0.80;;
29320;SDS011;16323;51.130;6.612;2023-02-26T04:07:36;1.05;;;0.68;;
29320;SDS011;16323;51.130;6.612;2023-02-26T04:10:05;2.22;;;0.60;;
29320;SDS011;16323;51.130;6.612;2023-02-26T04:12:33;0.63;;;0.50;;
29320;SDS011;16323;51.130;6.612;2023-02-26T04:15:00;3.15;;;0.50;;
29320;SDS011;16323;51.130;6.612;2023-02-26T04:17:29;1.17;;;0.45;;
29320;SDS011;16323;51.130;6.612;2023-02-26T04:19:57;1.50;;;0.50;;
29320;SDS011;16323;51.130;6.612;2023-02-26T04:22:24;1.38;;;0.57;;
29320;SDS011;16323;51.130;6.612;2023-02-26T04:24:51;3.13;;;0.93;;
29320;SDS011;16323;51.130;6.612;2023-02-26T04:27:17;1.38;;;0.70;;
29320;SDS011;16323;51.130;6.612;2023-02-26T04:29:44;2.28;;;0.63;;
29320;SDS011;16323;51.130;6.612;2023-02-26T04:32:11;1.42;;;0.82;;
29320;SDS011;16323;51.130;6.612;2023-02-26T04:34:38;1.90;;;0.80;;
29320;SDS011;16323;51.130;6.612;2023-02-26T04:37:06;2.15;;;0.80;;
29320;SDS011;16323;51.130;6.612;2023-02-26T04:39:33;2.83;;;0.95;;
29320;SDS011;16323;51.130;6.612;2023-02-26T04:42:00;1.42;;;0.80;;
29320;SDS011;16323;51.130;6.612;2023-02-26T04:44:28;3.40;;;0.80;;
29320;SDS011;16323;51.130;6.612;2023-02-26T04:46:55;2.33;;;0.90;;
29320;SDS011;16323;51.130;6.612;2023-02-26T04:49:22;1.58;;;0.70;;
29320;SDS011;16323;51.130;6.612;2023-02-26T04:51:49;1.83;;;0.90;;
29320;SDS011;16323;51.130;6.612;2023-02-26T04:54:17;1.00;;;0.50;;
29320;SDS011;16323;51.130;6.612;2023-02-26T04:56:44;3.10;;;0.90;;
29320;SDS011;16323;51.130;6.612;2023-02-26T04:59:11;1.27;;;0.68;;
29320;SDS011;16323;51.130;6.612;2023-02-26T05:01:37;1.75;;;0.70;;
29320;SDS011;16323;51.130;6.612;2023-02-26T05:04:04;3.28;;;0.80;;
29320;SDS011;16323;51.130;6.612;2023-02-26T05:06:32;1.90;;;0.90;;
29320;SDS011;16323;51.130;6.612;2023-02-26T05:08:58;3.42;;;0.82;;
29320;SDS011;16323;51.130;6.612;2023-02-26T05:11:27;2.45;;;1.00;;
29320;SDS011;16323;51.130;6.612;2023-02-26T05:13:53;3.00;;;0.90;;
29320;SDS011;16323;51.130;6.612;2023-02-26T05:16:20;1.98;;;0.80;;
29320;SDS011;16323;51.130;6.612;2023-02-26T05:18:47;2.03;;;0.90;;
29320;SDS011;16323;51.130;6.612;2023-02-26T05:21:14;1.33;;;0.80;;
29320;SDS011;16323;51.130;6.612;2023-02-26T05:23:41;2.45;;;0.90;;
29320;SDS011;16323;51.130;6.612;2023-02-26T05:26:08;2.92;;;0.98;;
29320;SDS011;16323;51.130;6.612;2023-02-26T05:28:36;2.33;;;0.93;;
29320;SDS011;16323;51.130;6.612;2023-02-26T05:31:03;1.77;;;0.82;;
29320;SDS011;16323;51.130;6.612;2023-02-26T05:33:30;2.28;;;0.73;;
29320;SDS011;16323;51.130;6.612;2023-02-26T05:35:57;2.90;;;0.98;;
29320;SDS011;16323;51.130;6.612;2023-02-26T05:38:24;2.15;;;0.70;;
29320;SDS011;16323;51.130;6.612;2023-02-26T05:40:54;1.85;;;0.73;;
29320;SDS011;16323;51.130;6.612;2023-02-26T05:43:21;1.65;;;0.80;;
29320;SDS011;16323;51.130;6.612;2023-02-26T05:45:50;1.88;;;0.90;;
29320;SDS011;16323;51.130;6.612;2023-02-26T05:48:17;1.85;;;0.82;;
29320;SDS011;16323;51.130;6.612;2023-02-26T05:50:45;2.72;;;0.88;;
29320;SDS011;16323;51.130;6.612;2023-02-26T05:53:12;2.28;;;0.82;;
29320;SDS011;16323;51.130;6.612;2023-02-26T05:55:39;1.88;;;0.80;;
29320;SDS011;16323;51.130;6.612;2023-02-26T05:58:06;2.53;;;0.90;;
29320;SDS011;16323;51.130;6.612;2023-02-26T06:00:32;1.55;;;0.80;;
29320;SDS011;16323;51.130;6.612;2023-02-26T06:03:01;2.30;;;0.77;;
29320;SDS011;16323;51.130;6.612;2023-02-26T06:05:27;1.33;;;0.75;;
29320;SDS011;16323;51.130;6.612;2023-02-26T06:07:54;3.17;;;0.70;;
29320;SDS011;16323;51.130;6.612;2023-02-26T06:10:21;1.05;;;0.65;;
29320;SDS011;16323;51.130;6.612;2023-02-26T06:12:48;3.45;;;0.82;;
29320;SDS011;16323;51.130;6.612;2023-02-26T06:15:15;1.00;;;0.50;;
29320;SDS011;16323;51.130;6.612;2023-02-26T06:17:42;1.35;;;0.55;;
29320;SDS011;16323;51.130;6.612;2023-02-26T06:20:11;1.13;;;0.70;;
29320;SDS011;16323;51.130;6.612;2023-02-26T06:22:38;2.65;;;0.52;;
29320;SDS011;16323;51.130;6.612;2023-02-26T06:25:05;1.42;;;0.65;;
29320;SDS011;16323;51.130;6.612;2023-02-26T06:27:32;1.73;;;0.68;;
29320;SDS011;16323;51.130;6.612;2023-02-26T06:29:59;2.13;;;0.68;;
29320;SDS011;16323;51.130;6.612;2023-02-26T06:32:26;1.27;;;0.55;;
29320;SDS011;16323;51.130;6.612;2023-02-26T06:34:53;2.72;;;0.73;;
29320;SDS011;16323;51.130;6.612;2023-02-26T06:37:21;0.80;;;0.60;;
29320;SDS011;16323;51.130;6.612;2023-02-26T06:39:48;1.15;;;0.50;;
29320;SDS011;16323;51.130;6.612;2023-02-26T06:42:14;1.73;;;0.50;;
29320;SDS011;16323;51.130;6.612;2023-02-26T06:44:41;0.73;;;0.40;;
29320;SDS011;16323;51.130;6.612;2023-02-26T06:47:08;1.75;;;0.60;;
29320;SDS011;16323;51.130;6.612;2023-02-26T06:49:35;1.38;;;0.85;;
29320;SDS011;16323;51.130;6.612;2023-02-26T06:52:01;1.13;;;0.70;;
29320;SDS011;16323;51.130;6.612;2023-02-26T06:54:30;2.30;;;0.55;;
29320;SDS011;16323;51.130;6.612;2023-02-26T06:56:56;2.17;;;0.40;;
29320;SDS011;16323;51.130;6.612;2023-02-26T06:59:24;1.13;;;0.40;;
29320;SDS011;16323;51.130;6.612;2023-02-26T07:01:51;2.65;;;0.57;;
29320;SDS011;16323;51.130;6.612;2023-02-26T07:04:17;0.88;;;0.32;;
29320;SDS011;16323;51.130;6.612;2023-02-26T07:06:44;0.85;;;0.50;;
29320;SDS011;16323;51.130;6.612;2023-02-26T07:09:11;1.13;;;0.50;;
29320;SDS011;16323;51.130;6.612;2023-02-26T07:11:39;2.97;;;0.60;;
29320;SDS011;16323;51.130;6.612;2023-02-26T07:14:06;0.47;;;0.20;;
29320;SDS011;16323;51.130;6.612;2023-02-26T07:16:33;1.67;;;0.57;;
29320;SDS011;16323;51.130;6.612;2023-02-26T07:18:59;3.63;;;0.50;;
29320;SDS011;16323;51.130;6.612;2023-02-26T07:21:26;3.50;;;0.60;;
29320;SDS011;16323;51.130;6.612;2023-02-26T07:23:53;1.27;;;0.45;;
29320;SDS011;16323;51.130;6.612;2023-02-26T07:26:20;1.50;;;0.50;;
29320;SDS011;16323;51.130;6.612;2023-02-26T07:28:48;2.15;;;0.68;;
29320;SDS011;16323;51.130;6.612;2023-02-26T07:31:15;1.88;;;0.68;;
29320;SDS011;16323;51.130;6.612;2023-02-26T07:33:42;1.17;;;0.63;;
29320;SDS011;16323;51.130;6.612;2023-02-26T07:36:09;1.15;;;0.43;;
29320;SDS011;16323;51.130;6.612;2023-02-26T07:38:35;1.70;;;0.38;;
29320;SDS011;16323;51.130;6.612;2023-02-26T07:41:02;2.60;;;0.60;;
29320;SDS011;16323;51.130;6.612;2023-02-26T07:43:29;1.08;;;0.60;;
29320;SDS011;16323;51.130;6.612;2023-02-26T07:45:57;1.27;;;0.60;;
29320;SDS011;16323;51.130;6.612;2023-02-26T07:48:24;0.65;;;0.45;;
29320;SDS011;16323;51.130;6.612;2023-02-26T07:50:51;0.80;;;0.40;;
29320;SDS011;16323;51.130;6.612;2023-02-26T07:53:18;2.65;;;0.70;;
29320;SDS011;16323;51.130;6.612;2023-02-26T07:55:46;2.15;;;0.60;;
29320;SDS011;16323;51.130;6.612;2023-02-26T07:58:13;1.23;;;0.60;;
29320;SDS011;16323;51.130;6.612;2023-02-26T08:00:40;1.10;;;0.60;;
29320;SDS011;16323;51.130;6.612;2023-02-26T08:03:08;0.75;;;0.50;;
29320;SDS011;16323;51.130;6.612;2023-02-26T08:05:35;0.98;;;0.50;;
29320;SDS011;16323;51.130;6.612;2023-02-26T08:08:02;3.45;;;0.63;;
29320;SDS011;16323;51.130;6.612;2023-02-26T08:10:29;1.45;;;0.60;;
29320;SDS011;16323;51.130;6.612;2023-02-26T08:12:56;1.08;;;0.52;;
29320;SDS011;16323;51.130;6.612;2023-02-26T08:15:23;2.88;;;0.50;;
29320;SDS011;16323;51.130;6.612;2023-02-26T08:17:50;2.72;;;0.70;;
29320;SDS011;16323;51.130;6.612;2023-02-26T08:20:19;2.00;;;0.80;;
29320;SDS011;16323;51.130;6.612;2023-02-26T08:22:46;1.88;;;0.47;;
29320;SDS011;16323;51.130;6.612;2023-02-26T08:25:13;1.08;;;0.65;;
29320;SDS011;16323;51.130;6.612;2023-02-26T08:27:39;1.92;;;0.70;;
29320;SDS011;16323;51.130;6.612;2023-02-26T08:30:07;1.60;;;0.73;;
29320;SDS011;16323;51.130;6.612;2023-02-26T08:32:35;2.05;;;0.50;;
29320;SDS011;16323;51.130;6.612;2023-02-26T08:35:03;1.27;;;0.60;;
29320;SDS011;16323;51.130;6.612;2023-02-26T08:37:32;1.27;;;0.57;;
29320;SDS011;16323;51.130;6.612;2023-02-26T08:39:59;2.08;;;0.50;;
29320;SDS011;16323;51.130;6.612;2023-02-26T08:42:26;2.83;;;0.63;;
29320;SDS011;16323;51.130;6.612;2023-02-26T08:44:53;1.17;;;0.63;;
29320;SDS011;16323;51.130;6.612;2023-02-26T08:47:19;1.85;;;0.40;;
29320;SDS011;16323;51.130;6.612;2023-02-26T08:49:46;1.27;;;0.50;;
29320;SDS011;16323;51.130;6.612;2023-02-26T08:52:13;2.42;;;0.60;;
29320;SDS011;16323;51.130;6.612;2023-02-26T08:54:41;1.50;;;0.65;;
29320;SDS011;16323;51.130;6.612;2023-02-26T08:57:08;2.53;;;0.85;;
29320;SDS011;16323;51.130;6.612;2023-02-26T08:59:35;1.17;;;0.50;;
29320;SDS011;16323;51.130;6.612;2023-02-26T09:02:02;0.85;;;0.43;;
29320;SDS011;16323;51.130;6.612;2023-02-26T09:04:28;0.70;;;0.45;;
29320;SDS011;16323;51.130;6.612;2023-02-26T09:06:55;0.65;;;0.22;;
29320;SDS011;16323;51.130;6.612;2023-02-26T09:09:22;2.03;;;0.65;;
29320;SDS011;16323;51.130;6.612;2023-02-26T09:11:50;1.48;;;0.60;;
29320;SDS011;16323;51.130;6.612;2023-02-26T09:14:17;1.00;;;0.47;;
29320;SDS011;16323;51.130;6.612;2023-02-26T09:16:44;0.40;;;0.40;;
29320;SDS011;16323;51.130;6.612;2023-02-26T09:19:11;1.70;;;0.60;;
29320;SDS011;16323;51.130;6.612;2023-02-26T09:21:37;1.48;;;0.60;;
29320;SDS011;16323;51.130;6.612;2023-02-26T09:24:05;2.15;;;0.60;;
29320;SDS011;16323;51.130;6.612;2023-02-26T09:26:32;0.93;;;0.40;;
29320;SDS011;16323;51.130;6.612;2023-02-26T09:29:00;1.05;;;0.50;;
29320;SDS011;16323;51.130;6.612;2023-02-26T09:31:27;1.00;;;0.55;;
29320;SDS011;16323;51.130;6.612;2023-02-26T09:33:53;2.17;;;0.82;;
29320;SDS011;16323;51.130;6.612;2023-02-26T09:36:20;1.05;;;0.30;;
29320;SDS011;16323;51.130;6.612;2023-02-26T09:38:47;2.13;;;0.70;;
29320;SDS011;16323;51.130;6.612;2023-02-26T09:41:15;1.10;;;0.55;;
29320;SDS011;16323;51.130;6.612;2023-02-26T09:43:53;0.75;;;0.35;;
29320;SDS011;16323;51.130;6.612;2023-02-26T09:46:32;1.73;;;0.52;;
29320;SDS011;16323;51.130;6.612;2023-02-26T09:49:08;1.02;;;0.30;;
29320;SDS011;16323;51.130;6.612;2023-02-26T09:51:45;1.95;;;0.50;;
29320;SDS011;16323;51.130;6.612;2023-02-26T09:54:17;1.30;;;0.40;;
29320;SDS011;16323;51.130;6.612;2023-02-26T09:56:47;1.27;;;0.50;;
29320;SDS011;16323;51.130;6.612;2023-02-26T09:59:15;1.27;;;0.50;;
29320;SDS011;16323;51.130;6.612;2023-02-26T10:01:45;0.40;;;0.32;;
29320;SDS011;16323;51.130;6.612;2023-02-26T10:04:21;1.77;;;0.45;;
29320;SDS011;16323;51.130;6.612;2023-02-26T10:06:59;1.13;;;0.52;;
29320;SDS011;16323;51.130;6.612;2023-02-26T10:09:36;0.82;;;0.50;;
29320;SDS011;16323;51.130;6.612;2023-02-26T10:12:15;2.20;;;0.70;;
29320;SDS011;16323;51.130;6.612;2023-02-26T10:14:45;1.75;;;0.47;;
29320;SDS011;16323;51.130;6.612;2023-02-26T10:17:19;2.15;;;0.40;;
29320;SDS011;16323;51.130;6.612;2023-02-26T10:19:52;2.13;;;0.50;;
29320;SDS011;16323;51.130;6.612;2023-02-26T10:22:23;1.58;;;0.40;;
29320;SDS011;16323;51.130;6.612;2023-02-26T10:24:54;1.15;;;0.40;;
29320;SDS011;16323;51.130;6.612;2023-02-26T10:27:34;1.60;;;0.47;;
29320;SDS011;16323;51.130;6.612;2023-02-26T10:30:06;1.38;;;0.40;;
29320;SDS011;16323;51.130;6.612;2023-02-26T10:32:42;0.93;;;0.40;;
29320;SDS011;16323;51.130;6.612;2023-02-26T10:35:16;0.68;;;0.40;;
29320;SDS011;16323;51.130;6.612;2023-02-26T10:37:46;1.67;;;0.40;;
29320;SDS011;16323;51.130;6.612;2023-02-26T10:40:16;1.65;;;0.47;;
29320;SDS011;16323;51.130;6.612;2023-02-26T10:42:49;1.95;;;0.40;;
29320;SDS011;16323;51.130;6.612;2023-02-26T10:45:28;1.02;;;0.40;;
29320;SDS011;16323;51.130;6.612;2023-02-26T10:48:11;1.17;;;0.38;;
29320;SDS011;16323;51.130;6.612;2023-02-26T10:50:53;1.02;;;0.52;;
29320;SDS011;16323;51.130;6.612;2023-02-26T10:53:23;0.77;;;0.30;;
29320;SDS011;16323;51.130;6.612;2023-02-26T10:55:52;2.10;;;0.32;;
29320;SDS011;16323;51.130;6.612;2023-02-26T10:58:25;2.35;;;0.50;;
29320;SDS011;16323;51.130;6.612;2023-02-26T11:00:52;0.82;;;0.40;;
29320;SDS011;16323;51.130;6.612;2023-02-26T11:03:26;1.13;;;0.40;;
29320;SDS011;16323;51.130;6.612;2023-02-26T11:05:57;2.88;;;0.40;;
29320;SDS011;16323;51.130;6.612;2023-02-26T11:08:25;0.82;;;0.35;;
29320;SDS011;16323;51.130;6.612;2023-02-26T11:10:56;0.25;;;0.20;;
29320;SDS011;16323;51.130;6.612;2023-02-26T11:13:25;1.65;;;0.47;;
29320;SDS011;16323;51.130;6.612;2023-02-26T11:15:54;0.98;;;0.50;;
29320;SDS011;16323;51.130;6.612;2023-02-26T11:18:25;0.52;;;0.22;;
29320;SDS011;16323;51.130;6.612;2023-02-26T11:20:54;1.02;;;0.30;;
29320;SDS011;16323;51.130;6.612;2023-02-26T11:23:23;1.08;;;0.40;;
29320;SDS011;16323;51.130;6.612;2023-02-26T11:25:53;0.30;;;0.30;;
29320;SDS011;16323;51.130;6.612;2023-02-26T11:28:29;2.65;;;0.43;;
29320;SDS011;16323;51.130;6.612;2023-02-26T11:30:59;1.15;;;0.30;;
29320;SDS011;16323;51.130;6.612;2023-02-26T11:33:31;2.78;;;0.40;;
29320;SDS011;16323;51.130;6.612;2023-02-26T11:36:04;1.63;;;0.40;;
29320;SDS011;16323;51.130;6.612;2023-02-26T11:38:34;1.90;;;0.30;;
29320;SDS011;16323;51.130;6.612;2023-02-26T11:41:02;2.55;;;0.43;;
29320;SDS011;16323;51.130;6.612;2023-02-26T11:43:33;0.77;;;0.28;;
29320;SDS011;16323;51.130;6.612;2023-02-26T11:46:02;1.17;;;0.50;;
29320;SDS011;16323;51.130;6.612;2023-02-26T11:48:35;1.13;;;0.30;;
29320;SDS011;16323;51.130;6.612;2023-02-26T11:51:05;0.77;;;0.20;;
29320;SDS011;16323;51.130;6.612;2023-02-26T11:53:35;0.82;;;0.40;;
29320;SDS011;16323;51.130;6.612;2023-02-26T11:56:10;2.25;;;0.30;;
29320;SDS011;16323;51.130;6.612;2023-02-26T11:58:38;0.68;;;0.43;;
29320;SDS011;16323;51.130;6.612;2023-02-26T12:01:09;0.50;;;0.30;;
29320;SDS011;16323;51.130;6.612;2023-02-26T12:03:42;1.40;;;0.40;;
29320;SDS011;16323;51.130;6.612;2023-02-26T12:06:14;1.52;;;0.30;;
29320;SDS011;16323;51.130;6.612;2023-02-26T12:08:43;0.63;;;0.35;;
29320;SDS011;16323;51.130;6.612;2023-02-26T12:11:21;1.92;;;0.50;;
29320;SDS011;16323;51.130;6.612;2023-02-26T12:17:10;0.75;;;0.28;;
29320;SDS011;16323;51.130;6.612;2023-02-26T12:19:50;1.08;;;0.52;;
29320;SDS011;16323;51.130;6.612;2023-02-26T12:22:26;0.38;;;0.22;;
29320;SDS011;16323;51.130;6.612;2023-02-26T12:25:18;0.40;;;0.30;;
29320;SDS011;16323;51.130;6.612;2023-02-26T12:28:28;1.95;;;0.40;;
29320;SDS011;16323;51.130;6.612;2023-02-26T12:31:12;3.10;;;0.47;;
29320;SDS011;16323;51.130;6.612;2023-02-26T12:33:54;0.30;;;0.20;;
29320;SDS011;16323;51.130;6.612;2023-02-26T12:36:37;0.65;;;0.32;;
29320;SDS011;16323;51.130;6.612;2023-02-26T12:39:20;1.05;;;0.30;;
29320;SDS011;16323;51.130;6.612;2023-02-26T12:42:04;0.60;;;0.28;;
29320;SDS011;16323;51.130;6.612;2023-02-26T12:44:46;0.65;;;0.38;;
29320;SDS011;16323;51.130;6.612;2023-02-26T12:47:27;1.20;;;0.30;;
29320;SDS011;16323;51.130;6.612;2023-02-26T12:50:11;0.95;;;0.45;;
29320;SDS011;16323;51.130;6.612;2023-02-26T12:53:00;1.38;;;0.70;;
29320;SDS011;16323;51.130;6.612;2023-02-26T12:55:42;0.43;;;0.20;;
29320;SDS011;16323;51.130;6.612;2023-02-26T12:58:24;0.57;;;0.30;;
29320;SDS011;16323;51.130;6.612;2023-02-26T13:01:19;0.57;;;0.30;;
29320;SDS011;16323;51.130;6.612;2023-02-26T13:04:18;2.15;;;0.40;;
29320;SDS011;16323;51.130;6.612;2023-02-26T13:07:19;1.33;;;0.40;;
29320;SDS011;16323;51.130;6.612;2023-02-26T13:10:00;1.23;;;0.47;;
29320;SDS011;16323;51.130;6.612;2023-02-26T13:12:34;0.75;;;0.32;;
29320;SDS011;16323;51.130;6.612;2023-02-26T13:18:03;0.43;;;0.15;;
29320;SDS011;16323;51.130;6.612;2023-02-26T13:20:36;0.57;;;0.25;;
29320;SDS011;16323;51.130;6.612;2023-02-26T13:23:09;1.10;;;0.30;;
29320;SDS011;16323;51.130;6.612;2023-02-26T13:25:42;1.90;;;0.40;;
29320;SDS011;16323;51.130;6.612;2023-02-26T13:28:18;2.00;;;0.30;;
29320;SDS011;16323;51.130;6.612;2023-02-26T13:30:50;0.30;;;0.25;;
29320;SDS011;16323;51.130;6.612;2023-02-26T13:33:20;1.75;;;0.40;;
29320;SDS011;16323;51.130;6.612;2023-02-26T13:35:51;1.02;;;0.38;;
29320;SDS011;16323;51.130;6.612;2023-02-26T13:38:22;0.85;;;0.40;;
29320;SDS011;16323;51.130;6.612;2023-02-26T13:40:59;1.25;;;0.40;;
29320;SDS011;16323;51.130;6.612;2023-02-26T13:43:33;0.60;;;0.20;;
29320;SDS011;16323;51.130;6.612;2023-02-26T13:46:16;0.77;;;0.40;;
29320;SDS011;16323;51.130;6.612;2023-02-26T13:48:54;0.60;;;0.52;;
29320;SDS011;16323;51.130;6.612;2023-02-26T13:51:28;0.50;;;0.32;;
29320;SDS011;16323;51.130;6.612;2023-02-26T13:54:00;0.40;;;0.32;;
29320;SDS011;16323;51.130;6.612;2023-02-26T13:59:25;0.22;;;0.17;;
29320;SDS011;16323;51.130;6.612;2023-02-26T14:01:59;0.65;;;0.40;;
29320;SDS011;16323;51.130;6.612;2023-02-26T14:04:28;1.52;;;0.30;;
29320;SDS011;16323;51.130;6.612;2023-02-26T14:06:56;0.60;;;0.30;;
29320;SDS011;16323;51.130;6.612;2023-02-26T14:09:43;0.65;;;0.30;;
29320;SDS011;16323;51.130;6.612;2023-02-26T14:12:24;1.10;;;0.30;;
29320;SDS011;16323;51.130;6.612;2023-02-26T14:15:18;0.40;;;0.25;;
29320;SDS011;16323;51.130;6.612;2023-02-26T14:18:04;0.65;;;0.40;;
29320;SDS011;16323;51.130;6.612;2023-02-26T14:20:44;0.35;;;0.22;;
29320;SDS011;16323;51.130;6.612;2023-02-26T14:23:12;0.45;;;0.15;;
29320;SDS011;16323;51.130;6.612;2023-02-26T14:25:55;0.57;;;0.35;;
29320;SDS011;16323;51.130;6.612;2023-02-26T14:31:24;0.95;;;0.22;;
29320;SDS011;16323;51.130;6.612;2023-02-26T14:34:05;0.22;;;0.10;;
29320;SDS011;16323;51.130;6.612;2023-02-26T14:36:39;1.75;;;0.22;;
29320;SDS011;16323;51.130;6.612;2023-02-26T14:39:12;1.00;;;0.30;;
29320;SDS011;16323;51.130;6.612;2023-02-26T14:41:51;0.98;;;0.40;;
29320;SDS011;16323;51.130;6.612;2023-02-26T14:44:26;0.25;;;0.20;;
29320;SDS011;16323;51.130;6.612;2023-02-26T14:46:56;0.88;;;0.30;;
29320;SDS011;16323;51.130;6.612;2023-02-26T14:49:25;0.63;;;0.13;;
29320;SDS011;16323;51.130;6.612;2023-02-26T14:52:05;1.48;;;0.45;;
29320;SDS011;16323;51.130;6.612;2023-02-26T14:54:58;0.68;;;0.30;;
29320;SDS011;16323;51.130;6.612;2023-02-26T14:57:38;0.32;;;0.25;;
29320;SDS011;16323;51.130;6.612;2023-02-26T15:00:15;0.10;;;0.10;;
29320;SDS011;16323;51.130;6.612;2023-02-26T15:03:02;0.35;;;0.30;;
29320;SDS011;16323;51.130;6.612;2023-02-26T15:05:43;2.20;;;0.28;;
29320;SDS011;16323;51.130;6.612;2023-02-26T15:08:28;1.75;;;0.47;;
29320;SDS011;16323;51.130;6.612;2023-02-26T15:11:12;1.45;;;0.30;;
29320;SDS011;16323;51.130;6.612;2023-02-26T15:14:02;0.38;;;0.20;;
29320;SDS011;16323;51.130;6.612;2023-02-26T15:16:54;0.15;;;0.15;;
29320;SDS011;16323;51.130;6.612;2023-02-26T15:19:33;0.10;;;0.10;;
29320;SDS011;16323;51.130;6.612;2023-02-26T15:22:15;1.48;;;0.40;;
29320;SDS011;16323;51.130;6.612;2023-02-26T15:24:54;0.68;;;0.30;;
29320;SDS011;16323;51.130;6.612;2023-02-26T15:27:21;0.15;;;0.13;;
29320;SDS011;16323;51.130;6.612;2023-02-26T15:29:48;0.47;;;0.20;;